Time;durP1;ratioP1;P1;durP2;ratioP2;P2;SDS_P1;SDS_P2;PMS_P1;PMS_P2;Temp;Humidity;BMP_temperature;BMP_pressure;BME280_temperature;BME280_humidity;BME280_pressure;Samples;Min_cycle;Max_cycle;Signal;HPM_P1;HPM_P2
2024/03/14 00:02:12;;;;;;;;;;;;;;;22.51;49.89;94193.66;5062838;28;9206;-61
2024/03/14 00:04:41;;;;;;;;;;;;;;;22.59;50.13;94200.19;5076712;28;9672;-61
2024/03/14 00:07:07;;;;;;;;;;;;;;;22.56;49.86;94189.44;5089422;28;8732;-59
2024/03/14 00:09:41;;;;;;;;;;;;;;;22.60;50.12;94196.19;5072126;28;8696;-59
2024/03/14 00:12:24;;;;;;;;;;;;;;;22.59;50.34;94193.94;5075641;28;8710;-59
2024/03/14 00:14:57;;;;;;;;;;;;;;;22.58;49.98;94187.69;5064123;28;9219;-61
2024/03/14 00:17:32;;;;;;;;;;;;;;;22.59;49.27;94186.50;5089064;28;9066;-63
2024/03/14 00:20:00;;;;;;;;;;;;;;;22.59;49.65;94185.72;5067856;28;8721;-63
2024/03/14 00:22:27;;;;;;;;;;;;;;;22.58;49.93;94190.44;5074151;28;8987;-63
2024/03/14 00:25:09;;;;;;;;;;;;;;;22.58;49.58;94192.41;5058664;28;7126;-63
2024/03/14 00:27:43;;;;;;;;;;;;;;;22.58;50.02;94184.94;5082016;28;7338;-63
2024/03/14 00:30:11;;;;;;;;;;;;;;;22.57;49.71;94183.47;5073258;28;9740;-63
2024/03/14 00:32:40;;;;;;;;;;;;;;;22.56;49.72;94176.47;5059606;28;9094;-63
2024/03/14 00:35:06;;;;;;;;;;;;;;;22.54;49.83;94170.75;5075812;28;9575;-63
2024/03/14 00:37:35;;;;;;;;;;;;;;;22.58;50.10;94176.72;5071857;28;8782;-62
2024/03/14 00:40:04;;;;;;;;;;;;;;;22.57;49.68;94174.50;5074962;28;9471;-63
2024/03/14 00:42:30;;;;;;;;;;;;;;;22.57;50.25;94166.28;5071161;28;8744;-63
2024/03/14 00:44:57;;;;;;;;;;;;;;;22.57;49.53;94175.25;5059815;28;9639;-63
2024/03/14 00:47:26;;;;;;;;;;;;;;;22.57;49.37;94169.75;5090910;28;8697;-63
2024/03/14 00:49:53;;;;;;;;;;;;;;;22.54;49.22;94159.78;5079090;28;9116;-63
2024/03/14 00:52:19;;;;;;;;;;;;;;;22.56;49.53;94165.50;5087962;28;8949;-63
2024/03/14 00:54:48;;;;;;;;;;;;;;;22.57;49.38;94160.78;5067774;28;8730;-63
2024/03/14 00:57:18;;;;;;;;;;;;;;;22.56;49.51;94165.50;5084190;28;7510;-63
2024/03/14 00:59:43;;;;;;;;;;;;;;;22.56;49.94;94171.00;5074566;28;8721;-63
2024/03/14 01:02:11;;;;;;;;;;;;;;;22.55;49.72;94171.50;5079614;28;8595;-63
2024/03/14 01:04:39;;;;;;;;;;;;;;;22.55;48.97;94180.47;5072281;28;9727;-63
2024/03/14 01:07:06;;;;;;;;;;;;;;;22.52;49.44;94176.72;5082724;28;9258;-63
2024/03/14 01:09:36;;;;;;;;;;;;;;;22.53;49.40;94178.22;5073453;28;9077;-63
2024/03/14 01:12:05;;;;;;;;;;;;;;;22.52;49.13;94178.72;5072982;28;9044;-63
2024/03/14 01:14:38;;;;;;;;;;;;;;;22.51;49.31;94174.47;5057752;28;7105;-63
2024/03/14 01:17:04;;;;;;;;;;;;;;;22.52;49.47;94175.97;5073210;28;9050;-63
2024/03/14 01:19:30;;;;;;;;;;;;;;;22.52;49.24;94174.00;5075148;28;9131;-63
2024/03/14 01:21:56;;;;;;;;;;;;;;;22.54;49.36;94176.22;5069622;28;7106;-63
2024/03/14 01:24:40;;;;;;;;;;;;;;;22.54;49.47;94162.53;5069668;28;9767;-63
2024/03/14 01:27:07;;;;;;;;;;;;;;;22.53;49.61;94155.56;5067683;28;9072;-59
2024/03/14 01:29:33;;;;;;;;;;;;;;;22.52;49.50;94160.28;5073773;28;8728;-60
2024/03/14 01:31:59;;;;;;;;;;;;;;;22.52;49.50;94154.06;5063061;28;8856;-60
2024/03/14 01:34:27;;;;;;;;;;;;;;;22.51;48.89;94158.03;5073291;28;8603;-60
2024/03/14 01:37:10;;;;;;;;;;;;;;;22.50;49.37;94153.81;5070607;28;9123;-60
2024/03/14 01:39:50;;;;;;;;;;;;;;;22.48;49.23;94140.59;5077533;28;9446;-60
2024/03/14 01:42:16;;;;;;;;;;;;;;;22.50;49.31;94140.84;5076485;28;7087;-60
2024/03/14 01:45:04;;;;;;;;;;;;;;;22.48;49.16;94140.59;5089700;28;9330;-60
2024/03/14 01:47:56;;;;;;;;;;;;;;;22.49;49.17;94124.88;5086795;28;9057;-60
2024/03/14 01:50:22;;;;;;;;;;;;;;;22.49;49.15;94127.63;5089612;28;9407;-60
2024/03/14 01:52:49;;;;;;;;;;;;;;;22.50;48.98;94127.16;5093324;28;9047;-60
2024/03/14 01:55:19;;;;;;;;;;;;;;;22.48;49.09;94124.16;5078088;28;9253;-60
2024/03/14 01:57:45;;;;;;;;;;;;;;;22.49;49.16;94122.91;5092245;28;9870;-60
2024/03/14 02:00:46;;;;;;;;;;;;;;;22.49;49.12;94111.19;5078062;28;9225;-60
2024/03/14 02:03:19;;;;;;;;;;;;;;;22.48;49.09;94104.22;5076337;28;9076;-60
2024/03/14 02:06:12;;;;;;;;;;;;;;;22.48;49.01;94117.91;5074155;28;9027;-60
2024/03/14 02:09:23;;;;;;;;;;;;;;;22.48;49.06;94115.94;5072536;28;9192;-60
2024/03/14 02:11:50;;;;;;;;;;;;;;;22.46;48.86;94121.16;5005759;28;8187;-60
2024/03/14 02:14:52;;;;;;;;;;;;;;;22.47;48.88;94122.66;4976654;28;9012;-60
2024/03/14 02:17:22;;;;;;;;;;;;;;;22.48;49.10;94139.84;4937021;28;7180;-60
2024/03/14 02:20:00;;;;;;;;;;;;;;;22.49;48.65;94141.31;4946724;28;8984;-60
2024/03/14 02:22:28;;;;;;;;;;;;;;;22.47;48.97;94139.09;4940867;28;7956;-61
2024/03/14 02:25:06;;;;;;;;;;;;;;;22.47;49.09;94141.06;4951032;28;8601;-64
2024/03/14 02:27:36;;;;;;;;;;;;;;;22.49;48.86;94146.81;4930036;29;9342;-64
2024/03/14 02:30:07;;;;;;;;;;;;;;;22.46;49.15;94140.34;4933899;28;9506;-64
2024/03/14 02:32:33;;;;;;;;;;;;;;;22.48;49.17;94139.84;4939539;28;6871;-64
2024/03/14 02:35:03;;;;;;;;;;;;;;;22.49;48.95;94127.63;4953730;28;8917;-59
2024/03/14 02:37:32;;;;;;;;;;;;;;;22.49;48.89;94125.63;4937486;28;8917;-59
2024/03/14 02:39:59;;;;;;;;;;;;;;;22.51;48.91;94127.88;4937175;28;8855;-60
2024/03/14 02:42:25;;;;;;;;;;;;;;;22.49;49.23;94131.13;4937674;28;7429;-59
2024/03/14 02:44:51;;;;;;;;;;;;;;;22.50;49.04;94126.41;4938170;28;9248;-59
2024/03/14 02:47:17;;;;;;;;;;;;;;;22.45;49.30;94119.66;4938973;28;8781;-59
2024/03/14 02:49:44;;;;;;;;;;;;;;;22.51;48.79;94111.44;4975646;28;8777;-59
2024/03/14 02:52:10;;;;;;;;;;;;;;;22.49;48.67;94109.19;5043930;28;9138;-59
2024/03/14 02:54:40;;;;;;;;;;;;;;;22.49;48.81;94108.44;5068154;28;9161;-59
2024/03/14 02:57:11;;;;;;;;;;;;;;;22.47;48.95;94110.94;5066800;28;9291;-59
2024/03/14 02:59:40;;;;;;;;;;;;;;;22.46;48.96;94114.94;5072895;28;9728;-59
2024/03/14 03:02:10;;;;;;;;;;;;;;;22.46;48.69;94115.69;5068065;28;8739;-59
2024/03/14 03:04:38;;;;;;;;;;;;;;;22.42;48.92;94106.22;5057582;28;9081;-59
2024/03/14 03:07:07;;;;;;;;;;;;;;;22.43;48.81;94115.91;5056913;28;9002;-59
2024/03/14 03:09:38;;;;;;;;;;;;;;;22.44;48.77;94111.94;5054940;28;8690;-59
2024/03/14 03:12:04;;;;;;;;;;;;;;;22.42;48.84;94119.91;5074266;28;9048;-59
2024/03/14 03:14:31;;;;;;;;;;;;;;;22.43;48.93;94121.41;5060662;28;8893;-59
2024/03/14 03:16:59;;;;;;;;;;;;;;;22.44;48.80;94120.88;5057097;28;8718;-59
2024/03/14 03:19:27;;;;;;;;;;;;;;;22.44;48.66;94112.66;5062854;28;8040;-59
2024/03/14 03:21:57;;;;;;;;;;;;;;;22.42;49.12;94108.97;5057058;28;9436;-59
2024/03/14 03:24:24;;;;;;;;;;;;;;;22.42;48.86;94108.97;5059025;28;8913;-59
2024/03/14 03:26:50;;;;;;;;;;;;;;;22.42;48.92;94112.41;5056545;28;9421;-59
2024/03/14 03:29:21;;;;;;;;;;;;;;;22.42;48.68;94108.97;5074752;28;9251;-59
2024/03/14 03:31:47;;;;;;;;;;;;;;;22.42;48.95;94111.69;5078213;28;9771;-59
2024/03/14 03:34:13;;;;;;;;;;;;;;;22.40;48.72;94114.91;5069633;28;8042;-59
2024/03/14 03:36:46;;;;;;;;;;;;;;;22.42;48.47;94109.69;5077317;28;9384;-59
2024/03/14 03:39:48;;;;;;;;;;;;;;;22.39;48.74;94113.44;5062598;28;9157;-59
2024/03/14 03:42:23;;;;;;;;;;;;;;;22.37;49.26;94121.41;5031365;28;9068;-59
2024/03/14 03:44:50;;;;;;;;;;;;;;;22.36;49.24;94127.34;4997979;28;9202;-59
2024/03/14 03:48:09;;;;;;;;;;;;;;;22.38;49.08;94125.63;5029037;28;8835;-59
2024/03/14 03:50:36;;;;;;;;;;;;;;;22.37;48.74;94120.66;5030945;28;9009;-59
2024/03/14 03:53:06;;;;;;;;;;;;;;;22.37;49.06;94126.88;5010973;28;8838;-59
2024/03/14 03:55:45;;;;;;;;;;;;;;;22.38;48.87;94124.88;5006369;28;8139;-58
2024/03/14 03:58:25;;;;;;;;;;;;;;;22.38;49.04;94124.88;5029071;28;7598;-59
2024/03/14 04:01:22;;;;;;;;;;;;;;;22.37;48.89;94123.38;5018713;28;9198;-59
2024/03/14 04:04:00;;;;;;;;;;;;;;;22.35;48.82;94132.09;5030119;28;9405;-59
2024/03/14 04:06:42;;;;;;;;;;;;;;;22.35;48.92;94125.88;5015879;28;9942;-59
2024/03/14 04:09:20;;;;;;;;;;;;;;;22.34;48.85;94124.38;5015446;28;7265;-59
2024/03/14 04:11:46;;;;;;;;;;;;;;;22.38;48.68;94125.63;5016972;28;9604;-59
2024/03/14 04:14:12;;;;;;;;;;;;;;;22.44;48.38;94129.13;5026162;28;9072;-59
2024/03/14 04:16:38;;;;;;;;;;;;;;;22.41;48.81;94118.41;5067411;28;8470;-59
2024/03/14 04:19:34;;;;;;;;;;;;;;;22.41;48.50;94113.69;5088855;28;7006;-59
2024/03/14 04:22:09;;;;;;;;;;;;;;;22.41;48.77;94112.94;4996837;28;7424;-59
2024/03/14 04:24:45;;;;;;;;;;;;;;;22.40;48.50;94116.94;5002318;28;9266;-59
2024/03/14 04:27:29;;;;;;;;;;;;;;;22.40;48.34;94114.91;5013381;28;9262;-59
2024/03/14 04:29:58;;;;;;;;;;;;;;;22.39;48.64;94110.69;4981351;28;9411;-60
2024/03/14 04:32:24;;;;;;;;;;;;;;;22.40;48.82;94111.44;5013862;28;9507;-59
2024/03/14 04:34:50;;;;;;;;;;;;;;;22.40;48.71;94119.66;5001456;28;8801;-59
2024/03/14 04:37:36;;;;;;;;;;;;;;;22.39;48.67;94118.91;5025505;28;8785;-59
2024/03/14 04:40:19;;;;;;;;;;;;;;;22.39;48.61;94109.94;4996653;28;9413;-59
2024/03/14 04:42:58;;;;;;;;;;;;;;;22.39;48.49;94112.69;5003477;28;9471;-59
2024/03/14 04:45:45;;;;;;;;;;;;;;;22.39;48.65;94109.94;5025607;28;9616;-59
2024/03/14 04:48:21;;;;;;;;;;;;;;;22.40;48.67;94127.88;5001084;28;8392;-59
2024/03/14 04:51:12;;;;;;;;;;;;;;;22.41;48.24;94118.41;5006895;28;9335;-59
2024/03/14 04:53:47;;;;;;;;;;;;;;;22.41;48.59;94118.41;4998517;28;8696;-59
2024/03/14 04:56:32;;;;;;;;;;;;;;;22.40;48.42;94134.09;4994956;28;9484;-59
2024/03/14 04:59:29;;;;;;;;;;;;;;;22.39;48.48;94132.59;5036314;28;9126;-59
2024/03/14 05:02:08;;;;;;;;;;;;;;;22.40;48.35;94133.38;5013916;28;8116;-59
2024/03/14 05:04:37;;;;;;;;;;;;;;;22.40;48.21;94131.34;5028627;28;8171;-59
2024/03/14 05:07:29;;;;;;;;;;;;;;;22.41;48.55;94129.38;4985079;28;8951;-59
2024/03/14 05:10:46;;;;;;;;;;;;;;;22.42;48.08;94130.88;4977307;28;7058;-59
2024/03/14 05:13:23;;;;;;;;;;;;;;;22.40;48.46;94125.88;5011440;28;8819;-59
2024/03/14 05:15:50;;;;;;;;;;;;;;;22.40;48.53;94127.88;5015487;28;8760;-59
2024/03/14 05:18:32;;;;;;;;;;;;;;;22.40;48.37;94127.88;5013034;28;9429;-59
2024/03/14 05:21:16;;;;;;;;;;;;;;;22.37;48.79;94128.88;5009088;28;9704;-59
2024/03/14 05:23:51;;;;;;;;;;;;;;;22.39;47.87;94129.88;5016625;28;9530;-58
2024/03/14 05:26:54;;;;;;;;;;;;;;;22.40;48.73;94133.38;5015067;28;7746;-60
2024/03/14 05:29:29;;;;;;;;;;;;;;;22.47;50.86;94136.34;5019343;28;9398;-60
2024/03/14 05:31:55;;;;;;;;;;;;;;;22.61;51.55;94140.16;5022704;28;9025;-59
2024/03/14 05:34:21;;;;;;;;;;;;;;;22.93;56.61;94141.41;5002361;28;9424;-60
2024/03/14 05:37:03;;;;;;;;;;;;;;;23.29;56.35;94133.41;5030258;28;9039;-60
2024/03/14 05:39:31;;;;;;;;;;;;;;;23.54;54.58;94130.38;5047129;28;9290;-60
2024/03/14 05:41:58;;;;;;;;;;;;;;;23.73;54.10;94128.56;5069318;28;9845;-60
2024/03/14 05:44:28;;;;;;;;;;;;;;;23.86;54.01;94123.25;5074982;28;8862;-60
2024/03/14 05:47:19;;;;;;;;;;;;;;;24.00;52.23;94121.47;5067524;28;8694;-59
2024/03/14 05:50:06;;;;;;;;;;;;;;;24.03;47.59;94114.97;5073846;28;7146;-58
2024/03/14 05:52:40;;;;;;;;;;;;;;;23.72;47.87;94113.34;5087302;28;9900;-60
2024/03/14 05:55:20;;;;;;;;;;;;;;;23.38;47.99;94125.66;5090094;28;9558;-61
2024/03/14 05:58:13;;;;;;;;;;;;;;;23.13;47.85;94127.44;5072720;28;8987;-61
2024/03/14 06:00:42;;;;;;;;;;;;;;;22.95;48.24;94133.41;5083138;28;7273;-61
2024/03/14 06:03:08;;;;;;;;;;;;;;;22.86;49.33;94130.91;5076030;28;9029;-66
2024/03/14 06:05:44;;;;;;;;;;;;;;;22.79;49.32;94136.16;5075981;28;8660;-66
2024/03/14 06:08:21;;;;;;;;;;;;;;;22.76;49.30;94137.91;5074572;28;8050;-64
2024/03/14 06:11:02;;;;;;;;;;;;;;;22.73;49.07;94138.16;5070406;28;9211;-65
2024/03/14 06:13:40;;;;;;;;;;;;;;;22.70;49.35;94128.94;5074032;28;9230;-65
2024/03/14 06:16:25;;;;;;;;;;;;;;;22.68;49.74;94127.94;5081892;28;9065;-64
2024/03/14 06:18:59;;;;;;;;;;;;;;;22.69;49.81;94119.22;5070149;28;9026;-65
2024/03/14 06:21:26;;;;;;;;;;;;;;;22.68;50.06;94125.19;5079614;28;9469;-65
2024/03/14 06:24:19;;;;;;;;;;;;;;;22.69;50.46;94115.72;5083914;28;8866;-65
2024/03/14 06:27:02;;;;;;;;;;;;;;;22.69;49.99;94121.94;5010864;28;9234;-66
2024/03/14 06:30:00;;;;;;;;;;;;;;;22.67;49.08;94121.69;5010740;28;8744;-66
2024/03/14 06:32:29;;;;;;;;;;;;;;;22.62;48.92;94132.69;4992160;28;8938;-68
2024/03/14 06:34:55;;;;;;;;;;;;;;;22.58;49.00;94126.63;4994414;28;9040;-66
2024/03/14 06:37:31;;;;;;;;;;;;;;;22.56;49.52;94129.88;4984695;28;8781;-65
2024/03/14 06:39:57;;;;;;;;;;;;;;;22.57;49.08;94127.91;4988439;28;9200;-65
2024/03/14 06:42:23;;;;;;;;;;;;;;;22.56;48.75;94131.88;4987838;28;9116;-65
2024/03/14 06:44:49;;;;;;;;;;;;;;;22.56;49.33;94134.59;4990030;28;9101;-66
2024/03/14 06:47:22;;;;;;;;;;;;;;;22.54;49.27;94129.63;4990828;28;7074;-65
2024/03/14 06:49:49;;;;;;;;;;;;;;;22.53;49.00;94134.34;4984744;28;9035;-66
2024/03/14 06:52:15;;;;;;;;;;;;;;;22.55;49.28;94133.88;4981215;28;9266;-60
2024/03/14 06:55:03;;;;;;;;;;;;;;;22.55;49.14;94136.63;4982133;28;9176;-61
2024/03/14 06:57:30;;;;;;;;;;;;;;;22.58;48.80;94132.88;4989375;28;9407;-61
2024/03/14 06:59:58;;;;;;;;;;;;;;;22.61;49.12;94142.13;4996275;28;8729;-62
2024/03/14 07:02:24;;;;;;;;;;;;;;;22.65;49.29;94137.16;5011379;28;8998;-60
2024/03/14 07:04:51;;;;;;;;;;;;;;;22.67;49.13;94151.09;5077159;28;7234;-62
2024/03/14 07:07:20;;;;;;;;;;;;;;;22.73;50.08;94152.59;5074022;28;8813;-62
2024/03/14 07:09:46;;;;;;;;;;;;;;;22.81;52.54;94142.66;5071659;28;8854;-62
2024/03/14 07:12:12;;;;;;;;;;;;;;;22.97;57.22;94150.13;5075734;28;9047;-61
2024/03/14 07:14:41;;;;;;;;;;;;;;;23.32;57.24;94148.84;5082795;28;9075;-61
2024/03/14 07:17:07;;;;;;;;;;;;;;;23.63;58.59;94148.56;5076247;28;8777;-61
2024/03/14 07:19:35;;;;;;;;;;;;;;;23.88;59.09;94137.25;5070982;28;7245;-61
2024/03/14 07:22:03;;;;;;;;;;;;;;;24.10;57.29;94144.66;5087957;28;8732;-61
2024/03/14 07:24:30;;;;;;;;;;;;;;;24.24;56.85;94143.63;5072652;28;7329;-61
2024/03/14 07:26:56;;;;;;;;;;;;;;;24.35;50.83;94146.31;5071644;28;9228;-65
2024/03/14 07:29:24;;;;;;;;;;;;;;;24.38;50.29;94148.00;5075423;28;7172;-61
2024/03/14 07:31:51;;;;;;;;;;;;;;;24.39;49.94;94149.53;5068642;28;7257;-71
2024/03/14 07:34:18;;;;;;;;;;;;;;;24.35;47.07;94146.31;5062112;28;7365;-70
2024/03/14 07:37:14;;;;;;;;;;;;;;;24.35;48.40;94156.53;5075578;28;9449;-65
2024/03/14 07:40:16;;;;;;;;;;;;;;;24.15;47.29;94152.16;5017264;28;9780;-65
2024/03/14 07:43:11;;;;;;;;;;;;;;;23.92;48.55;94151.44;4945685;28;8765;-62
2024/03/14 07:45:46;;;;;;;;;;;;;;;23.77;48.26;94153.03;4943389;28;8485;-63
2024/03/14 07:48:17;;;;;;;;;;;;;;;23.68;47.93;94158.78;4943801;28;9540;-63
2024/03/14 07:51:01;;;;;;;;;;;;;;;23.57;48.51;94159.56;4925783;28;9352;-62
2024/03/14 07:53:37;;;;;;;;;;;;;;;23.54;48.49;94168.81;4936552;28;7232;-62
2024/03/14 07:56:33;;;;;;;;;;;;;;;23.48;49.09;94161.81;4942949;28;8881;-63
2024/03/14 07:59:28;;;;;;;;;;;;;;;23.45;48.30;94168.31;4933663;29;9016;-63
2024/03/14 08:02:07;;;;;;;;;;;;;;;23.36;49.60;94166.56;4905796;29;9132;-62
2024/03/14 08:04:46;;;;;;;;;;;;;;;23.36;49.81;94171.34;4911224;29;9119;-62
2024/03/14 08:07:43;;;;;;;;;;;;;;;23.35;49.63;94169.84;4909957;29;9410;-63
2024/03/14 08:10:20;;;;;;;;;;;;;;;23.31;49.23;94166.56;4843425;29;8794;-62
2024/03/14 08:12:47;;;;;;;;;;;;;;;23.34;49.80;94165.59;4844242;29;8704;-62
2024/03/14 08:15:30;;;;;;;;;;;;;;;23.35;49.57;94164.34;4842756;29;7122;-59
2024/03/14 08:18:11;;;;;;;;;;;;;;;23.38;49.42;94171.59;4815650;29;8979;-59
2024/03/14 08:20:39;;;;;;;;;;;;;;;23.38;49.30;94164.06;4895490;29;9250;-59
2024/03/14 08:23:04;;;;;;;;;;;;;;;23.39;49.10;94164.84;4880843;29;9425;-59
2024/03/14 08:25:37;;;;;;;;;;;;;;;23.41;49.28;94165.81;4894264;29;8745;-59
2024/03/14 08:28:04;;;;;;;;;;;;;;;23.42;49.13;94169.31;4886651;29;8720;-59
2024/03/14 08:30:30;;;;;;;;;;;;;;;23.43;48.84;94165.31;4886270;29;7233;-59
2024/03/14 08:32:57;;;;;;;;;;;;;;;23.45;49.08;94165.56;4886535;29;9585;-59
2024/03/14 08:35:26;;;;;;;;;;;;;;;23.47;49.23;94171.31;4908996;28;9601;-59
2024/03/14 08:38:04;;;;;;;;;;;;;;;23.49;48.49;94169.56;4962786;28;6957;-59
2024/03/14 08:40:31;;;;;;;;;;;;;;;23.51;49.01;94169.06;4967773;28;9019;-59
2024/03/14 08:42:58;;;;;;;;;;;;;;;23.52;48.69;94165.06;4965070;28;9297;-59
2024/03/14 08:45:36;;;;;;;;;;;;;;;23.53;49.33;94169.31;4962579;28;9261;-59
2024/03/14 08:48:21;;;;;;;;;;;;;;;23.54;48.53;94163.31;5082193;28;9098;-59
2024/03/14 08:51:01;;;;;;;;;;;;;;;23.60;48.68;94166.03;5082323;28;8706;-59
2024/03/14 08:54:09;;;;;;;;;;;;;;;23.68;48.48;94169.78;5066917;28;9408;-59
2024/03/14 08:56:45;;;;;;;;;;;;;;;23.74;48.53;94173.25;5023516;28;7042;-59
2024/03/14 08:59:15;;;;;;;;;;;;;;;23.76;48.35;94170.75;5014635;28;9233;-59
2024/03/14 09:01:45;;;;;;;;;;;;;;;23.81;48.35;94172.72;5001680;28;8772;-59
2024/03/14 09:04:30;;;;;;;;;;;;;;;23.85;48.07;94167.72;5023326;28;9724;-59
2024/03/14 09:07:30;;;;;;;;;;;;;;;23.89;48.05;94159.97;5020420;28;9381;-58
2024/03/14 09:10:33;;;;;;;;;;;;;;;23.96;47.94;94162.19;5008189;28;9760;-59
2024/03/14 09:13:25;;;;;;;;;;;;;;;24.02;47.14;94162.91;5010076;28;8801;-59
2024/03/14 09:16:00;;;;;;;;;;;;;;;24.06;47.03;94162.66;5027732;28;7137;-59
2024/03/14 09:18:39;;;;;;;;;;;;;;;24.12;47.48;94166.16;5029287;28;9125;-60
2024/03/14 09:21:19;;;;;;;;;;;;;;;24.18;47.27;94170.38;5028833;28;9307;-59
2024/03/14 09:24:18;;;;;;;;;;;;;;;24.24;47.10;94171.09;5005184;28;7200;-59
2024/03/14 09:26:59;;;;;;;;;;;;;;;24.31;46.54;94169.81;5031023;28;10276;-66
2024/03/14 09:29:36;;;;;;;;;;;;;;;24.34;46.41;94158.53;5074707;28;8857;-66
2024/03/14 09:32:03;;;;;;;;;;;;;;;24.36;46.15;94161.53;5075310;28;9021;-66
2024/03/14 09:34:32;;;;;;;;;;;;;;;24.41;45.88;94165.50;5073682;28;8748;-66
2024/03/14 09:37:02;;;;;;;;;;;;;;;24.42;46.61;94158.75;5071871;28;7307;-66
2024/03/14 09:39:35;;;;;;;;;;;;;;;24.44;45.98;94165.25;5078312;28;9499;-66
2024/03/14 09:42:07;;;;;;;;;;;;;;;24.46;46.27;94161.97;5086896;28;9030;-65
2024/03/14 09:44:51;;;;;;;;;;;;;;;24.47;45.95;94161.47;5078875;28;7257;-65
2024/03/14 09:47:40;;;;;;;;;;;;;;;24.48;46.55;94165.72;5077705;28;7730;-65
2024/03/14 09:50:20;;;;;;;;;;;;;;;24.45;46.47;94157.72;5088532;28;8692;-66
2024/03/14 09:53:05;;;;;;;;;;;;;;;24.47;46.20;94149.72;5081975;28;8172;-66
2024/03/14 09:55:41;;;;;;;;;;;;;;;24.51;46.31;94156.44;5086263;28;8923;-65
2024/03/14 09:58:08;;;;;;;;;;;;;;;24.51;46.14;94161.22;5073545;28;9243;-65
2024/03/14 10:00:36;;;;;;;;;;;;;;;24.50;46.56;94157.72;5081083;28;9532;-65
2024/03/14 10:03:22;;;;;;;;;;;;;;;24.52;46.67;94157.19;5069165;28;9314;-66
2024/03/14 10:06:15;;;;;;;;;;;;;;;24.53;45.71;94156.69;5072034;28;8791;-66
2024/03/14 10:08:47;;;;;;;;;;;;;;;24.52;46.15;94154.44;5067524;28;9049;-66
2024/03/14 10:11:40;;;;;;;;;;;;;;;24.53;45.55;94164.19;5072341;28;9115;-66
2024/03/14 10:14:22;;;;;;;;;;;;;;;24.51;46.21;94150.94;5030679;28;10032;-66
2024/03/14 10:17:07;;;;;;;;;;;;;;;24.50;46.00;94149.47;5015077;28;9970;-66
2024/03/14 10:19:37;;;;;;;;;;;;;;;24.56;45.75;94152.91;5021805;28;9237;-66
2024/03/14 10:22:14;;;;;;;;;;;;;;;24.58;46.06;94158.66;5019086;28;9079;-66
2024/03/14 10:24:41;;;;;;;;;;;;;;;24.58;46.26;94155.91;5018782;28;9179;-67
2024/03/14 10:27:11;;;;;;;;;;;;;;;24.58;46.41;94155.91;5018163;28;9391;-67
2024/03/14 10:29:56;;;;;;;;;;;;;;;24.59;46.10;94148.41;5024955;28;8879;-67
2024/03/14 10:32:23;;;;;;;;;;;;;;;24.58;45.70;94153.16;5031578;28;7205;-67
2024/03/14 10:34:51;;;;;;;;;;;;;;;24.59;45.85;94146.41;5032750;28;9056;-67
2024/03/14 10:37:33;;;;;;;;;;;;;;;24.57;45.87;94145.41;5017220;28;9452;-58
2024/03/14 10:40:30;;;;;;;;;;;;;;;24.60;45.65;94147.88;5026429;28;9155;-57
2024/03/14 10:42:57;;;;;;;;;;;;;;;24.59;45.86;94145.66;5031192;28;9419;-57
2024/03/14 10:45:32;;;;;;;;;;;;;;;24.60;45.50;94147.13;5026371;28;7321;-57
2024/03/14 10:51:41;;;;;;;;;;;;;;;24.60;45.56;94131.38;5067771;28;6729;-57
2024/03/14 10:54:38;;;;;;;;;;;;;;;24.60;46.05;94128.63;5065669;28;9661;-57
2024/03/14 10:57:07;;;;;;;;;;;;;;;24.55;46.24;94115.69;5018744;28;9935;-57
2024/03/14 10:59:37;;;;;;;;;;;;;;;24.62;46.00;94117.16;5019169;28;8835;-57
2024/03/14 11:02:14;;;;;;;;;;;;;;;24.63;46.28;94119.38;5005506;28;8855;-57
2024/03/14 11:04:42;;;;;;;;;;;;;;;24.64;45.55;94120.84;5015767;28;9477;-58
2024/03/14 11:07:24;;;;;;;;;;;;;;;24.65;45.85;94111.38;5013662;28;7061;-57
2024/03/14 11:10:28;;;;;;;;;;;;;;;24.67;46.09;94111.59;4993658;28;9606;-57
2024/03/14 11:13:15;;;;;;;;;;;;;;;24.67;45.74;94103.34;5002392;28;8678;-57
2024/03/14 11:15:46;;;;;;;;;;;;;;;24.66;44.94;94110.09;5007449;28;9157;-57
2024/03/14 11:18:22;;;;;;;;;;;;;;;24.66;45.27;94101.13;5014346;28;7251;-57
2024/03/14 11:21:04;;;;;;;;;;;;;;;24.59;45.29;94085.91;5011328;28;8995;-57
2024/03/14 11:23:46;;;;;;;;;;;;;;;24.66;45.88;94096.34;5006769;28;9061;-58
2024/03/14 11:26:34;;;;;;;;;;;;;;;24.67;45.38;94089.59;5019075;28;9134;-57
2024/03/14 11:29:06;;;;;;;;;;;;;;;24.66;46.00;94084.63;4995660;28;9408;-58
2024/03/14 11:31:38;;;;;;;;;;;;;;;24.69;45.63;94084.34;4999909;28;8858;-57
2024/03/14 11:34:08;;;;;;;;;;;;;;;24.70;45.41;94091.34;5052029;28;9560;-58
2024/03/14 11:36:35;;;;;;;;;;;;;;;24.70;45.46;94085.84;5084239;28;9457;-57
2024/03/14 11:39:37;;;;;;;;;;;;;;;24.71;45.08;94081.81;5084945;28;9064;-57
2024/03/14 11:42:14;;;;;;;;;;;;;;;24.73;45.77;94080.56;5092522;28;9173;-57
2024/03/14 11:44:47;;;;;;;;;;;;;;;24.73;45.66;94079.28;5076104;28;9046;-57
2024/03/14 11:47:47;;;;;;;;;;;;;;;24.74;46.08;94071.78;5070535;28;7622;-62
2024/03/14 11:50:22;;;;;;;;;;;;;;;24.75;45.73;94070.56;5059704;28;9050;-62
2024/03/14 11:52:54;;;;;;;;;;;;;;;24.76;45.07;94063.81;5084116;28;8623;-62
2024/03/14 11:59:04;;;;;;;;;;;;;;;24.79;44.93;94065.53;5092798;28;7863;-61
2024/03/14 12:01:38;;;;;;;;;;;;;;;24.81;45.48;94057.53;5070661;28;9141;-63
2024/03/14 12:04:23;;;;;;;;;;;;;;;24.83;44.94;94054.25;5063317;28;9226;-63
2024/03/14 12:06:55;;;;;;;;;;;;;;;24.82;45.54;94055.50;5064232;28;10005;-64
2024/03/14 12:09:33;;;;;;;;;;;;;;;24.84;44.94;94050.25;5078313;28;9085;-64
2024/03/14 12:12:00;;;;;;;;;;;;;;;24.85;44.94;94046.97;5081045;28;9043;-63
2024/03/14 12:14:28;;;;;;;;;;;;;;;24.87;45.21;94052.72;5074409;28;9010;-63
2024/03/14 12:16:55;;;;;;;;;;;;;;;24.89;45.35;94052.94;5068877;28;8953;-64
2024/03/14 12:20:10;;;;;;;;;;;;;;;24.93;45.19;94053.41;5077376;28;9099;-63
2024/03/14 12:23:07;;;;;;;;;;;;;;;24.94;45.72;94043.91;5062727;28;9438;-63
2024/03/14 12:25:37;;;;;;;;;;;;;;;24.96;45.37;94046.88;5082018;28;9022;-63
2024/03/14 12:28:19;;;;;;;;;;;;;;;24.97;45.16;94042.13;5077012;28;9765;-63
2024/03/14 12:30:56;;;;;;;;;;;;;;;24.98;44.91;94038.09;5071376;28;8745;-64
2024/03/14 12:33:28;;;;;;;;;;;;;;;24.97;45.29;94036.63;5085666;28;9111;-64
2024/03/14 12:35:56;;;;;;;;;;;;;;;25.00;45.55;94024.56;5086570;28;9067;-64
2024/03/14 12:38:28;;;;;;;;;;;;;;;25.02;45.99;94036.56;5078746;28;9038;-65
2024/03/14 12:40:58;;;;;;;;;;;;;;;25.00;45.50;94028.06;5092474;28;9158;-64
2024/03/14 12:43:30;;;;;;;;;;;;;;;25.06;45.14;94028.00;5080341;28;9067;-64
2024/03/14 12:45:57;;;;;;;;;;;;;;;25.03;44.99;94021.53;5081561;28;7095;-63
2024/03/14 12:48:25;;;;;;;;;;;;;;;25.08;45.30;94026.22;5074346;28;9465;-64
2024/03/14 12:50:53;;;;;;;;;;;;;;;25.06;45.22;94022.50;5077349;28;8762;-64
2024/03/14 12:53:24;;;;;;;;;;;;;;;25.09;44.89;94022.22;5071344;28;7167;-64
2024/03/14 12:55:53;;;;;;;;;;;;;;;25.11;45.84;94027.22;5078488;28;9370;-67
2024/03/14 12:58:22;;;;;;;;;;;;;;;25.10;45.25;94017.47;5090136;28;9145;-67
2024/03/14 13:00:52;;;;;;;;;;;;;;;25.13;45.35;94019.94;5069469;28;8999;-68
2024/03/14 13:03:22;;;;;;;;;;;;;;;25.15;45.52;94019.41;5063010;28;9399;-68
2024/03/14 13:05:49;;;;;;;;;;;;;;;25.15;45.36;94014.66;5087752;28;9182;-68
2024/03/14 13:08:16;;;;;;;;;;;;;;;25.16;45.34;94013.41;5075505;28;9134;-68
2024/03/14 13:10:46;;;;;;;;;;;;;;;25.18;45.72;94008.13;5076095;28;9134;-68
2024/03/14 13:13:21;;;;;;;;;;;;;;;25.17;45.43;94000.38;5069288;28;6865;-68
2024/03/14 13:15:50;;;;;;;;;;;;;;;25.22;45.03;94010.59;5081209;28;7248;-68
2024/03/14 13:18:21;;;;;;;;;;;;;;;25.25;45.32;94015.06;5089721;28;7241;-68
2024/03/14 13:21:02;;;;;;;;;;;;;;;25.23;45.20;93996.28;5075972;28;7070;-68
2024/03/14 13:23:29;;;;;;;;;;;;;;;25.29;45.63;94005.22;5071969;28;8986;-68
2024/03/14 13:26:10;;;;;;;;;;;;;;;25.28;45.48;94000.25;5065649;28;9020;-68
2024/03/14 13:29:07;;;;;;;;;;;;;;;25.33;45.27;94007.72;5084764;28;9544;-67
2024/03/14 13:31:35;;;;;;;;;;;;;;;25.32;45.23;93997.94;5070440;28;9122;-68
2024/03/14 13:34:01;;;;;;;;;;;;;;;25.31;45.38;93993.72;5076825;28;8862;-67
2024/03/14 13:36:44;;;;;;;;;;;;;;;25.32;45.14;94001.44;5091442;28;9005;-68
2024/03/14 13:39:14;;;;;;;;;;;;;;;25.30;45.56;93986.72;5060177;28;7035;-67
2024/03/14 13:42:05;;;;;;;;;;;;;;;25.32;45.44;93989.69;5086784;28;9499;-67
2024/03/14 13:45:28;;;;;;;;;;;;;;;25.31;45.04;93991.72;5071492;28;7272;-67
2024/03/14 13:48:03;;;;;;;;;;;;;;;25.26;45.19;93983.50;4996572;28;9549;-67
2024/03/14 13:51:15;;;;;;;;;;;;;;;25.28;45.20;93984.47;4984254;28;8718;-66